メインページ
METAR-TAF:

METAR-TAF

空港 :

Williams Lake, ブリティッシュコロンビア州, カナダ

緯度: 52-11N, 経度: 122-03W, 海抜: 940m

現時点の気象観測

当レポートは33分前の09:00(UTC)に作成
東/南東の風 11kt
気温 1°C
湿度 86%
気圧 1017 hPa
視程: 6.4km
高度600ftの曇り

METAR: CYWL 140900Z 11011KT 4SM BR OVC006 01/M01 A3004 RMK ST8 SLP210

時間: 01:33 (09:33 UTC)

予報

当レポートは2時間55分前の06:38(UTC)に作成
予報は14日の 07時(UTC)から 14日の 19時(UTC)まで有効
東/南東の風 10kt
視程: 3.2km
高度400ftの曇り
14日の 07時(UTC)から 14日の 12時(UTC)まで一時的に
視程: 9.7km
高度1000ftの千切れ雲あり
14日の 1200時(UTC)から
東/南東の風 10kt
視程: 10km
高度1200ftの雲は散在している
高度14000ftの千切れ雲あり
14日の 12時(UTC)から 14日の 16時(UTC)まで一時的に
視程: 8.0km
高度800ftの千切れ雲あり
14日の 1600時(UTC)から
東/南東の風 13kt、最大23ktの突風を伴う
視程: 10km
高度12000ftの千切れ雲あり
14日の 16時(UTC)から 14日の 19時(UTC)まで一時的に
視程: 10km
高度10000ftの曇り
弱いにわか雨

TAF: CYWL 140638Z 1407/1419 11010KT 2SM BR OVC004 TEMPO 1407/1412 6SM BR BKN010 FM141200 12010KT P6SM SCT012 BKN140 TEMPO 1412/1416 5SM BR BKN008 FM141600 11013G23KT P6SM BKN120 TEMPO 1416/1419 P6SM -SHRA OVC100 RMK NXT FCST BY 141300Z

4,000以上の空港の気象観測と天気予報(METAR報とTAF報)

利用可能な観測所は地図上に黄色い丸と赤い丸で示す。

丸の上にカーソルを重ねると観測所名を参照できる。

次にクリックすると気象観測と天気予報を参照できる。

マップの切り替え:黒色「×」印の緑ボタンをクリックして拡大、「-」印の緑ボタンをクリックして縮小、緑色の三角印をクリックして隣りの地図に切り替え


METAR-TAF: